Latest Weather Observations for Camden

IDN60901

Issued at 2:05 pm EDT Saturday 1 November 2014 (issued every 10 minutes, with the page automatically refreshed every 10 minutes)

About weather observations | Map of Sydney area stations | Latest observations for Sydney area | Other Formats
Station Details ID: 068192 Name: CAMDEN AIRPORT AWS Lat: -34.04 Lon: 150.69 Height: 73.9 m
Data from the previous 72 hours. | See also: Recent months at Camden
Date/Time
EDT
Tmp

°C
App
Tmp
°C
Dew
Point
°C
Rel
Hum
%
Delta-T

°C
Wind Press
QNH
hPa
Press
MSL
hPa
Rain
since
9 am
mm
Dir
 
Spd
km/h
Gust
km/h
Spd
kts
Gust
kts
01/02:00pm 33.0 28.3 12.1 28 12.5 NW 28 43 15 23 997.8 997.6 0.0
01/01:40pm 33.7 29.6 13.7 30 12.2 NW 28 46 15 25 998.5 998.3 0.0
01/01:30pm 34.5 29.5 13.3 27 12.9 NNW 32 39 17 21 998.8 998.6 0.0
01/01:27pm 34.4 30.1 13.3 28 12.8 WNW 28 37 15 20 998.8 998.6 0.0
01/01:10pm 33.6 27.2 13.1 29 12.4 NNW 39 57 21 31 999.1 998.9 0.0
01/01:00pm 32.7 25.1 11.8 28 12.4 NW 43 57 23 31 999.5 999.3 0.0
01/12:30pm 34.2 27.8 13.1 28 12.8 NW 39 57 21 31 999.4 999.2 0.0
01/12:00pm 34.5 27.2 12.8 27 13.2 NNW 43 61 23 33 999.5 999.3 0.0
01/11:56am 34.2 27.2 12.5 27 13.1 NNW 41 61 22 33 999.5 999.3 0.0
01/11:30am 33.5 26.7 13.0 29 12.4 NNW 41 54 22 29 1000.0 999.8 0.0
01/11:00am 33.4 28.2 12.9 28 12.4 NW 32 50 17 27 1000.6 1000.4 0.0
01/10:44am 33.0 28.5 12.6 29 12.2 NNW 28 46 15 25 1001.1 1001.0 0.0
01/10:30am 32.8 27.1 12.9 29 11.9 NNW 35 46 19 25 1001.7 1001.5 0.0
01/10:00am 31.0 27.3 12.8 32 10.9 NNE 24 30 13 16 1002.3 1002.1 0.0
01/09:30am 30.8 26.3 12.7 33 10.7 NNW 28 35 15 19 1002.5 1002.3 0.0
01/09:00am 29.2 26.9 13.0 37 9.6 N 17 24 9 13 1003.0 1002.8 0.0
01/08:30am 27.1 27.1 14.1 44 7.8 NNW 7 13 4 7 1003.5 1003.3 0.0
01/08:00am 22.3 23.4 13.6 58 5.1 CALM 0 6 0 3 1003.8 1003.6 0.0
01/07:30am 19.4 19.0 13.1 67 3.6 S 7 9 4 5 1004.1 1003.9 0.0
01/07:00am 16.9 16.1 12.8 77 2.3 SE 9 13 5 7 1004.3 1004.1 0.0
01/06:30am 14.8 14.6 13.0 89 1.0 SSW 6 7 3 4 1004.2 1004.0 0.0
01/06:00am 14.5 14.0 12.7 89 1.0 N 7 11 4 6 1004.1 1003.9 0.0
01/05:30am 14.5 14.0 12.2 86 1.3 NNE 6 7 3 4 1004.0 1003.8 0.0
01/05:00am 15.6 15.8 11.8 78 2.1 S 2 6 1 3 1004.0 1003.8 0.0
01/04:30am 15.4 16.1 12.2 81 1.8 CALM 0 0 0 0 1004.4 1004.2 0.0
01/04:00am 15.4 14.9 12.2 81 1.8 W 6 9 3 5 1004.5 1004.3 0.0
01/03:30am 16.4 16.3 12.2 76 2.3 NNE 4 7 2 4 1005.1 1004.9 0.0
01/03:00am 16.4 15.3 11.8 74 2.5 S 9 11 5 6 1004.9 1004.7 0.0
01/02:50am 16.7 16.2 12.5 76 2.3 S 7 11 4 6 1005.2 1005.0 0.0
01/02:33am 16.8 17.1 12.1 74 2.6 SSW 2 6 1 3 1005.3 1005.1 0.0
01/02:30am 16.8 17.1 12.1 74 2.6 SSW 2 7 1 4 1005.3 1005.1 0.0
01/02:00am 17.0 17.3 12.3 74 2.6 NE 2 6 1 3 1005.8 1005.6 0.0
01/01:30am 17.4 17.7 12.3 72 2.8 SW 2 7 1 4 1005.9 1005.7 0.0
01/01:00am 17.7 17.0 11.5 67 3.4 NE 6 6 3 3 1005.9 1005.7 0.0
01/12:30am 17.9 17.3 12.4 70 3.1 N 7 9 4 5 1006.2 1006.0 0.0
01/12:00am 17.3 16.5 12.8 75 2.5 N 9 11 5 6 1006.7 1006.5 0.0
 
Date/Time
EDT
Tmp

°C
App
Tmp
°C
Dew
Point
°C
Rel
Hum
%
Delta-T

°C
Wind Press
QNH
hPa
Press
MSL
hPa
Rain
since
9 am
mm
Dir
 
Spd
km/h
Gust
km/h
Spd
kts
Gust
kts
31/11:30pm 17.8 18.4 11.8 68 3.3 CALM 0 0 0 0 1006.4 1006.2 0.0
31/11:00pm 18.6 17.9 11.4 63 4.0 SSW 6 7 3 4 1006.6 1006.4 0.0
31/10:30pm 19.2 19.5 11.0 59 4.5 CALM 0 0 0 0 1006.9 1006.8 0.0
31/10:00pm 19.8 18.9 10.8 56 4.9 SSW 6 7 3 4 1007.4 1007.3 0.0
31/09:30pm 20.3 19.5 9.8 51 5.7 S 4 7 2 4 1007.6 1007.5 0.0
31/09:00pm 21.1 20.6 10.9 52 5.6 SE 4 9 2 5 1007.7 1007.6 0.0
31/08:30pm 23.0 21.4 8.7 40 7.6 S 7 9 4 5 1007.4 1007.3 0.0
31/08:00pm 26.1 24.1 6.2 28 10.4 E 6 9 3 5 1007.2 1007.1 0.0
31/07:30pm 26.8 24.5 5.7 26 10.9 ENE 7 13 4 7 1007.0 1006.9 0.0
31/07:00pm 27.8 25.4 7.1 27 11.1 E 9 13 5 7 1006.6 1006.4 0.0
31/06:30pm 29.5 25.8 8.0 26 11.8 ENE 17 22 9 12 1006.3 1006.1 0.0
31/06:00pm 29.8 26.0 7.7 25 12.1 ENE 17 26 9 14 1006.3 1006.1 0.0
31/05:30pm 31.5 27.1 7.2 22 13.3 ENE 20 33 11 18 1005.9 1005.7 0.0
31/05:00pm 32.6 28.2 7.4 21 13.9 ENE 20 32 11 17 1006.0 1005.8 0.0
31/04:30pm 33.0 28.5 8.5 22 13.8 ENE 22 35 12 19 1005.9 1005.7 0.0
31/04:00pm 35.8 30.9 2.0 12 17.4 NNE 17 22 9 12 1006.0 1005.8 0.0
31/03:30pm 34.6 29.3 3.2 14 16.3 ENE 20 32 11 17 1006.3 1006.1 0.0
31/03:00pm 34.7 29.8 4.3 15 16.1 NNE 19 26 10 14 1007.0 1006.9 0.0
31/02:30pm 34.5 30.1 5.0 16 15.8 ENE 17 28 9 15 1007.6 1007.5 0.0
31/02:00pm 34.4 29.5 5.0 16 15.8 NNE 20 30 11 16 1008.4 1008.3 0.0
31/01:30pm 34.1 29.5 6.4 18 15.1 NE 20 30 11 16 1009.0 1008.9 0.0
31/01:00pm 33.3 29.6 8.0 21 14.1 N 17 26 9 14 1009.5 1009.4 0.0
31/12:30pm 32.0 29.1 9.5 25 12.8 NNE 15 20 8 11 1010.2 1010.1 0.0
31/12:00pm 30.4 28.1 10.4 29 11.4 NE 13 19 7 10 1010.9 1010.8 0.0
31/11:30am 29.6 28.8 11.6 33 10.5 NE 7 11 4 6 1011.5 1011.4 0.0
31/11:00am 27.2 25.7 8.6 31 10.2 N 6 11 3 6 1012.3 1012.2 0.0
31/10:30am 26.2 25.4 9.5 35 9.2 E 4 9 2 5 1012.9 1012.8 0.0
31/10:00am 24.2 23.1 8.6 37 8.4 NE 4 11 2 6 1013.3 1013.2 0.0
31/09:30am 22.3 20.7 8.1 40 7.5 SE 6 9 3 5 1013.5 1013.4 0.0
31/09:00am 19.8 18.7 10.0 53 5.3 S 6 7 3 4 1013.7 1013.6 0.0
31/08:30am 17.3 16.6 10.0 62 3.9 SW 4 7 2 4 1013.8 1013.7 0.0
31/08:00am 16.2 15.9 10.1 67 3.2 SE 2 6 1 3 1013.5 1013.4 0.0
31/07:30am 14.0 13.9 9.6 75 2.3 CALM 0 0 0 0 1013.4 1013.3 0.0
31/07:00am 11.6 11.6 9.9 89 0.9 CALM 0 0 0 0 1013.4 1013.3 0.0
31/06:54am 11.3 11.4 10.2 93 0.6 CALM 0 0 0 0 1013.4 1013.3 0.0
31/06:30am 10.5 10.5 9.7 95 0.4 CALM 0 0 0 0 1013.3 1013.2 0.0
31/06:00am 10.1 9.9 8.9 92 0.6 CALM 0 0 0 0 1013.2 1013.1 0.0
31/05:30am 10.3 10.0 8.7 90 0.8 CALM 0 0 0 0 1013.0 1012.9 0.0
31/05:00am 10.6 10.3 8.7 88 0.9 CALM 0 0 0 0 1012.9 1012.8 0.0
31/04:30am 11.0 10.9 9.4 90 0.8 CALM 0 6 0 3 1012.7 1012.6 0.0
31/04:00am 11.1 11.0 9.4 89 0.9 CALM 0 0 0 0 1012.7 1012.6 0.0
31/03:30am 11.4 11.2 9.1 86 1.2 CALM 0 0 0 0 1012.9 1012.8 0.0
31/03:00am 11.9 12.0 10.0 88 1.0 CALM 0 0 0 0 1012.9 1012.8 0.0
31/02:30am 12.2 12.2 9.8 85 1.2 CALM 0 0 0 0 1013.0 1012.9 0.0
31/02:00am 12.5 12.6 10.2 86 1.2 CALM 0 0 0 0 1013.2 1013.1 0.0
31/01:30am 12.9 13.1 10.4 85 1.3 CALM 0 0 0 0 1013.4 1013.3 0.0
31/01:00am 13.2 13.2 9.8 80 1.7 CALM 0 0 0 0 1013.8 1013.7 0.0
31/12:30am 14.2 13.8 9.8 75 2.3 S 2 6 1 3 1014.1 1014.0 0.0
31/12:00am 14.4 14.5 10.0 75 2.3 CALM 0 0 0 0 1014.1 1014.0 0.0
 
Date/Time
EDT
Tmp

°C
App
Tmp
°C
Dew
Point
°C
Rel
Hum
%
Delta-T

°C
Wind Press
QNH
hPa
Press
MSL
hPa
Rain
since
9 am
mm
Dir
 
Spd
km/h
Gust
km/h
Spd
kts
Gust
kts
30/11:30pm 15.2 13.9 9.8 70 2.8 S 7 9 4 5 1013.9 1013.8 0.0
30/11:00pm 15.5 14.3 9.6 68 3.1 S 6 7 3 4 1014.0 1013.9 0.0
30/10:30pm 16.6 16.7 10.0 65 3.5 CALM 0 6 0 3 1014.0 1013.9 0.0
30/10:00pm 18.1 16.8 10.0 59 4.3 S 7 9 4 5 1013.8 1013.7 0.0
30/09:30pm 19.1 17.9 9.6 54 5.0 S 6 9 3 5 1013.7 1013.6 0.0
30/09:00pm 20.2 18.8 9.5 50 5.7 S 7 9 4 5 1013.3 1013.2 0.0
30/08:30pm 20.8 19.1 9.7 49 6.0 S 9 11 5 6 1012.9 1012.8 0.0
30/08:00pm 22.5 20.3 9.3 43 7.1 ESE 11 15 6 8 1012.3 1012.2 0.0
30/07:30pm 24.6 20.7 8.5 36 8.7 E 19 28 10 15 1011.8 1011.7 0.0
30/07:00pm 29.0 26.3 3.8 20 12.8 WNW 7 11 4 6 1011.1 1011.0 0.0
30/06:30pm 30.6 28.3 5.8 21 13.2 WSW 7 11 4 6 1010.7 1010.6 0.0
30/06:00pm 31.1 27.2 3.2 17 14.2 WNW 13 17 7 9 1010.4 1010.3 0.0
30/05:30pm 31.4 28.0 4.2 18 14.1 W 11 17 6 9 1010.2 1010.1 0.0
30/05:00pm 31.2 29.0 3.3 17 14.3 SSE 4 11 2 6 1010.1 1010.0 0.0
30/04:30pm 31.0 27.7 4.7 19 13.7 N 11 17 6 9 1010.3 1010.2 0.0
30/04:00pm 30.7 28.3 5.2 20 13.4 NNW 7 11 4 6 1010.4 1010.3 0.0
30/03:30pm 30.4 27.5 4.9 20 13.3 N 9 19 5 10 1010.7 1010.6 0.0
30/03:00pm 30.5 27.2 6.4 22 12.9 NW 13 24 7 13 1011.2 1011.1 0.0
30/02:30pm 30.1 25.4 6.1 22 12.8 W 20 28 11 15 1011.8 1011.7 0.0
30/02:00pm 29.0 26.0 5.8 23 12.2 NNW 11 20 6 11 1012.4 1012.3 0.0
30/01:30pm 28.7 24.8 7.3 26 11.5 WNW 17 22 9 12 1012.7 1012.6 0.0
30/01:00pm 28.8 26.2 9.5 30 10.8 N 13 20 7 11 1012.9 1012.8 0.0
30/12:30pm 27.4 25.0 8.8 31 10.2 NNW 11 19 6 10 1013.4 1013.3 0.0
30/12:00pm 26.9 24.1 8.4 31 10.1 NNW 13 22 7 12 1013.8 1013.7 0.0
30/11:30am 25.9 23.5 10.1 37 8.8 NNW 13 30 7 16 1014.4 1014.3 0.0
30/11:00am 25.3 24.3 11.1 41 8.0 NNW 7 17 4 9 1014.7 1014.6 0.0
30/10:30am 24.4 23.0 11.0 43 7.5 N 9 13 5 7 1014.9 1014.8 0.0
30/10:00am 22.4 21.6 11.8 51 6.0 N 7 11 4 6 1015.1 1015.0 0.0
30/09:30am 21.1 20.3 12.8 59 4.7 N 9 13 5 7 1015.3 1015.2 0.0
30/09:00am 19.8 20.6 13.7 68 3.5 N 2 9 1 5 1015.6 1015.4 0.0
30/08:30am 17.9 19.1 13.8 77 2.3 CALM 0 0 0 0 1015.9 1015.7 0.0
30/08:00am 15.7 16.8 13.4 86 1.3 CALM 0 0 0 0 1015.9 1015.7 0.0
30/07:30am 14.0 15.0 13.2 95 0.4 CALM 0 0 0 0 1015.8 1015.6 0.0
30/07:15am 13.3 14.3 13.1 99 0.1 CALM 0 0 0 0 1015.7 1015.5 0.0
30/07:00am 12.7 13.5 12.5 99 0.1 CALM 0 0 0 0 1015.7 1015.5 0.0
30/06:50am 12.1 12.7 11.9 99 0.1 CALM 0 0 0 0 1015.5 1015.3 0.0
30/06:30am 11.4 11.8 11.1 98 0.2 CALM 0 0 0 0 1015.2 1015.1 0.0
30/06:07am 11.3 11.6 11.0 98 0.2 CALM 0 0 0 0 1015.2 1015.1 0.0
30/06:03am 11.4 11.8 11.1 98 0.2 CALM 0 0 0 0 1015.2 1015.1 0.0
30/06:00am 11.4 11.8 11.1 98 0.2 CALM 0 0 0 0 1015.2 1015.1 0.0
30/05:49am 12.1 12.7 11.9 99 0.1 CALM 0 0 0 0 1015.0 1014.9 0.0
30/05:39am 12.2 12.8 11.9 98 0.2 CALM 0 0 0 0 1015.0 1014.9 0.0
30/05:30am 11.6 12.0 11.1 97 0.3 CALM 0 0 0 0 1015.0 1014.9 0.0
30/05:11am 12.0 12.5 11.7 98 0.2 CALM 0 0 0 0 1015.0 1014.9 0.0
30/05:07am 12.3 12.9 12.0 98 0.2 CALM 0 0 0 0 1015.0 1014.9 0.0
30/05:00am 12.5 13.2 12.2 98 0.2 CALM 0 0 0 0 1014.9 1014.8 0.0
30/04:53am 12.6 13.3 12.1 97 0.3 CALM 0 0 0 0 1014.8 1014.7 0.0
30/04:47am 12.6 13.3 12.1 97 0.3 CALM 0 0 0 0 1014.8 1014.7 0.0
30/04:46am 12.5 13.1 12.0 97 0.3 CALM 0 0 0 0 1014.8 1014.7 0.0
30/04:33am 12.7 13.4 12.2 97 0.3 CALM 0 0 0 0 1014.8 1014.7 0.0
30/04:32am 12.7 13.4 12.2 97 0.3 CALM 0 0 0 0 1014.8 1014.7 0.0
30/04:31am 12.7 13.4 12.2 97 0.3 CALM 0 0 0 0 1014.8 1014.7 0.0
30/04:30am 12.7 13.4 12.2 97 0.3 CALM 0 0 0 0 1014.8 1014.7 0.0
30/04:00am 13.2 14.0 12.4 95 0.4 CALM 0 0 0 0 1015.0 1014.9 0.0
30/03:56am 13.1 13.8 12.3 95 0.4 CALM 0 0 0 0 1015.1 1015.0 0.0
30/03:36am 13.4 14.2 12.5 94 0.5 CALM 0 0 0 0 1015.2 1015.1 0.0
30/03:30am 13.6 14.4 12.7 94 0.5 CALM 0 4 0 2 1015.3 1015.2 0.0
30/03:27am 13.9 14.8 13.0 94 0.5 CALM 0 4 0 2 1015.3 1015.2 0.0
30/03:00am 14.4 15.4 13.3 93 0.6 CALM 0 0 0 0 1015.6 1015.4 0.0
30/02:30am 14.4 15.2 12.4 88 1.1 CALM 0 0 0 0 1015.8 1015.6 0.0
30/02:00am 15.5 16.5 13.3 87 1.2 CALM 0 0 0 0 1016.0 1015.8 0.0
30/01:30am 15.7 15.6 13.2 85 1.4 NNE 6 7 3 4 1016.4 1016.2 0.0
30/01:00am 15.9 15.5 13.0 83 1.6 NNE 7 9 4 5 1016.5 1016.3 0.0
30/12:30am 17.2 16.5 13.3 78 2.2 NNE 9 11 5 6 1016.9 1016.7 0.0
30/12:00am 18.0 17.0 13.5 75 2.6 NNE 11 15 6 8 1017.1 1016.9 0.0
 
Date/Time
EDT
Tmp

°C
App
Tmp
°C
Dew
Point
°C
Rel
Hum
%
Delta-T

°C
Wind Press
QNH
hPa
Press
MSL
hPa
Rain
since
9 am
mm
Dir
 
Spd
km/h
Gust
km/h
Spd
kts
Gust
kts
29/11:30pm 18.2 17.3 13.7 75 2.6 NNE 11 17 6 9 1017.1 1016.9 0.0
29/11:00pm 18.1 16.7 13.4 74 2.7 NE 13 17 7 9 1017.1 1016.9 0.0
29/10:30pm 18.1 17.1 13.4 74 2.7 NNE 11 15 6 8 1017.1 1016.9 0.0
29/10:00pm 18.1 16.7 13.4 74 2.7 NE 13 17 7 9 1017.0 1016.8 0.0
29/09:30pm 18.5 17.5 13.4 72 2.9 ENE 11 17 6 9 1017.1 1016.9 0.0
29/09:00pm 18.5 17.6 13.6 73 2.8 ENE 11 15 6 8 1017.0 1016.8 0.0
29/08:30pm 18.1 17.8 13.4 74 2.7 ENE 7 9 4 5 1016.7 1016.5 0.0
29/08:00pm 17.7 17.3 13.0 74 2.6 E 7 11 4 6 1016.6 1016.4 0.0
29/07:30pm 18.6 17.5 13.2 71 3.1 E 11 19 6 10 1016.2 1016.0 0.0
29/07:00pm 19.0 17.1 13.0 68 3.4 E 15 20 8 11 1015.9 1015.7 0.0
29/06:30pm 20.1 17.8 13.1 64 4.0 ENE 17 28 9 15 1015.5 1015.3 0.0
29/06:00pm 21.2 18.9 13.1 60 4.6 E 17 24 9 13 1014.9 1014.8 0.0
29/05:30pm 21.5 19.1 12.6 57 5.1 E 17 26 9 14 1014.6 1014.5 0.0
29/05:00pm 22.5 19.5 12.7 54 5.6 E 20 32 11 17 1014.3 1014.2 0.0
29/04:30pm 23.2 20.3 12.8 52 6.0 E 20 32 11 17 1014.2 1014.1 0.0
29/04:00pm 23.3 20.2 12.3 50 6.3 E 20 33 11 18 1014.4 1014.3 0.0
29/03:30pm 24.0 20.7 11.7 46 7.0 E 20 35 11 19 1014.3 1014.2 0.0
29/03:00pm 24.8 20.8 10.3 40 8.0 E 22 30 12 16 1014.5 1014.4 0.0
29/02:30pm 25.3 20.7 9.6 37 8.6 ENE 24 33 13 18 1014.6 1014.5 0.0

Latest Capital City Observations: Canberra | Sydney | Melbourne | Brisbane | Adelaide | Perth | Hobart | Darwin

Other Formats:

Comma delimited format used in spreadsheet applications
http://www.bom.gov.au/fwo/IDN60901/IDN60901.94755.axf

JavaScript Object Notation format (JSON) in row-major order
http://www.bom.gov.au/fwo/IDN60901/IDN60901.94755.json